Urbana, Iowa
Current Conditions -  °F | °C
As of 2:35 AM on Saturday 20 Dec 2014 (Local Time) from KVTI Reporting Station
Broken Clouds Broken Clouds  
Wind Chill: 23°   Ceiling: 2100
Heat Index: 30°   Visibility: 10mi
Dew Point: 24°   Wind: 7mph
Humidity: 77%   Direction: 170°S
Pressure: 30.22"   Gusts: NA
Location:  42.22°N, 91.87°W
Report Text: KVTI 200835Z AUTO 17006KT 10SM SCT011 BKN021 M01/M04 A3022 RMK AO2 T10101045
Loading
Personal Weather Stations






























Interactive Weather Map New forecast layout! Learn more

10-Day Weather Forecast

Advertisements
Track Severe Weather on mobile